Time;durP1;ratioP1;P1;durP2;ratioP2;P2;SDS_P1;SDS_P2;PMS_P1;PMS_P2;Temp;Humidity;BMP_temperature;BMP_pressure;BME280_temperature;BME280_humidity;BME280_pressure;Samples;Min_cycle;Max_cycle;Signal;HPM_P1;HPM_P2
2022/06/16 00:00:15;;;;;;;;;;;19.20;82.20;;;;;;4978030;28;20362;-77
2022/06/16 00:02:42;;;;;;;;;;;19.20;82.50;;;;;;4977708;28;19910;-79
2022/06/16 00:05:09;;;;;;;;;;;19.00;83.90;;;;;;4977576;28;20363;-79
2022/06/16 00:07:36;;;;;;;;;;;18.90;85.30;;;;;;4977514;28;19965;-78
2022/06/16 00:10:02;;;;;;;;;;;18.80;86.00;;;;;;4977547;28;19914;-79
2022/06/16 00:12:28;;;;;;;;;;;19.00;85.50;;;;;;4977470;28;19910;-79
2022/06/16 00:14:54;;;;;;;;;;;18.90;85.90;;;;;;4977524;28;20009;-78
2022/06/16 00:17:19;;;;;;;;;;;18.90;85.70;;;;;;4977332;28;19914;-79
2022/06/16 00:19:45;;;;;;;;;;;18.80;87.00;;;;;;4977288;28;20422;-79
2022/06/16 00:22:10;;;;;;;;;;;18.60;88.70;;;;;;4977126;28;20314;-79
2022/06/16 00:24:36;;;;;;;;;;;18.50;89.70;;;;;;4977278;28;19918;-80
2022/06/16 00:27:02;;;;;;;;;;;18.60;89.50;;;;;;4977192;28;19914;-78
2022/06/16 00:29:27;;;;;;;;;;;18.70;88.80;;;;;;4977160;28;20004;-78
2022/06/16 00:31:53;;;;;;;;;;;18.70;88.90;;;;;;4977221;28;19960;-78
2022/06/16 00:34:19;;;;;;;;;;;18.80;88.50;;;;;;4977050;28;19910;-79
2022/06/16 00:36:44;;;;;;;;;;;18.70;89.10;;;;;;4977071;28;20285;-78
2022/06/16 00:39:10;;;;;;;;;;;18.70;89.00;;;;;;4976952;28;20417;-79
2022/06/16 00:41:35;;;;;;;;;;;18.60;88.70;;;;;;4959514;28;20022;-79
2022/06/16 00:44:02;;;;;;;;;;;18.70;88.50;;;;;;4977019;28;19925;-78
2022/06/16 00:46:30;;;;;;;;;;;18.70;88.70;;;;;;4976653;28;20013;-78
2022/06/16 00:48:58;;;;;;;;;;;18.60;90.10;;;;;;4976603;28;19918;-79
2022/06/16 00:51:26;;;;;;;;;;;18.50;90.60;;;;;;4976890;28;20001;-79
2022/06/16 00:53:53;;;;;;;;;;;18.40;90.90;;;;;;4976773;28;19952;-79
2022/06/16 00:56:20;;;;;;;;;;;18.20;91.80;;;;;;4976745;28;19916;-79
2022/06/16 00:58:48;;;;;;;;;;;18.20;91.90;;;;;;4976618;28;19917;-78
2022/06/16 01:01:17;;;;;;;;;;;18.20;91.70;;;;;;4976748;28;19938;-79
2022/06/16 01:06:29;;;;;;;;;;;18.10;92.80;;;;;;4976442;28;19917;-78
2022/06/16 01:08:59;;;;;;;;;;;18.20;92.10;;;;;;4975457;28;19910;-78
2022/06/16 01:14:26;;;;;;;;;;;18.40;91.90;;;;;;4976514;28;19929;-77
2022/06/16 01:16:55;;;;;;;;;;;18.40;91.50;;;;;;4976346;28;19922;-78
2022/06/16 01:19:39;;;;;;;;;;;18.50;91.50;;;;;;4976241;28;19909;-78
2022/06/16 01:22:10;;;;;;;;;;;18.50;91.50;;;;;;4976383;28;19910;-78
2022/06/16 01:24:38;;;;;;;;;;;18.40;91.60;;;;;;4976196;28;19921;-79
2022/06/16 01:27:22;;;;;;;;;;;18.30;92.10;;;;;;4975995;28;19918;-77
2022/06/16 01:29:58;;;;;;;;;;;18.30;92.50;;;;;;4976047;28;20294;-77
2022/06/16 01:32:27;;;;;;;;;;;18.30;92.70;;;;;;4976283;28;19914;-78
2022/06/16 01:34:56;;;;;;;;;;;18.30;92.50;;;;;;4976061;28;19917;-78
2022/06/16 01:37:28;;;;;;;;;;;18.30;92.70;;;;;;4975957;28;20395;-79
2022/06/16 01:39:59;;;;;;;;;;;18.00;93.90;;;;;;4975729;28;20287;-78
2022/06/16 01:42:34;;;;;;;;;;;18.10;94.10;;;;;;4975745;28;19917;-78
2022/06/16 01:45:12;;;;;;;;;;;18.00;94.50;;;;;;4975988;28;20020;-77
2022/06/16 01:47:40;;;;;;;;;;;18.00;94.50;;;;;;4975524;28;19922;-78
2022/06/16 01:50:09;;;;;;;;;;;18.00;95.00;;;;;;4975669;28;19921;-78
2022/06/16 01:52:37;;;;;;;;;;;18.00;95.50;;;;;;4975594;28;19933;-77
2022/06/16 01:55:06;;;;;;;;;;;17.80;95.70;;;;;;4975794;28;19915;-79
2022/06/16 01:57:49;;;;;;;;;;;17.70;96.60;;;;;;4975551;28;19913;-80
2022/06/16 02:00:17;;;;;;;;;;;17.70;97.60;;;;;;4975831;28;19910;-79
2022/06/16 02:02:43;;;;;;;;;;;17.70;98.00;;;;;;4975361;28;19960;-78
2022/06/16 02:05:13;;;;;;;;;;;17.70;98.10;;;;;;4975298;28;20035;-79
2022/06/16 02:07:42;;;;;;;;;;;17.60;99.60;;;;;;4975371;28;19916;-78
2022/06/16 02:10:12;;;;;;;;;;;17.50;99.80;;;;;;4975569;28;19910;-78
2022/06/16 02:12:56;;;;;;;;;;;17.40;99.90;;;;;;4975291;28;20000;-78
2022/06/16 02:15:35;;;;;;;;;;;17.40;99.90;;;;;;4975641;28;19965;-79
2022/06/16 02:18:03;;;;;;;;;;;17.30;99.90;;;;;;4975642;28;19910;-78
2022/06/16 02:20:32;;;;;;;;;;;17.30;99.90;;;;;;4974912;28;19910;-78
2022/06/16 02:22:58;;;;;;;;;;;17.30;99.90;;;;;;4975127;28;19932;-78
2022/06/16 02:25:24;;;;;;;;;;;17.30;99.90;;;;;;4975008;28;20370;-79
2022/06/16 02:27:49;;;;;;;;;;;17.40;99.90;;;;;;4975188;28;20336;-78
2022/06/16 02:30:15;;;;;;;;;;;17.50;99.90;;;;;;4975083;28;19917;-78
2022/06/16 02:33:07;;;;;;;;;;;17.60;99.90;;;;;;4975053;28;19953;-79
2022/06/16 02:35:43;;;;;;;;;;;17.70;99.90;;;;;;4972981;28;20354;-78
2022/06/16 02:38:27;;;;;;;;;;;17.70;99.90;;;;;;4975349;28;19910;-78
2022/06/16 02:41:13;;;;;;;;;;;17.50;99.90;;;;;;4975042;28;19949;-77
2022/06/16 02:44:05;;;;;;;;;;;17.40;99.90;;;;;;4966964;28;19958;-79
2022/06/16 02:46:37;;;;;;;;;;;17.30;99.90;;;;;;4972691;28;19910;-78
2022/06/16 02:49:08;;;;;;;;;;;17.30;99.90;;;;;;4974482;28;20448;-78
2022/06/16 02:51:42;;;;;;;;;;;17.30;99.90;;;;;;4974773;28;19916;-79
2022/06/16 02:54:20;;;;;;;;;;;17.30;99.90;;;;;;4975176;28;19910;-78
2022/06/16 02:56:45;;;;;;;;;;;17.30;99.90;;;;;;4957304;28;19910;-78
2022/06/16 02:59:16;;;;;;;;;;;17.30;99.90;;;;;;4974745;28;19925;-78
2022/06/16 03:01:41;;;;;;;;;;;17.40;99.90;;;;;;4975100;28;20358;-78
2022/06/16 03:04:07;;;;;;;;;;;17.40;99.90;;;;;;4974658;28;19918;-80
2022/06/16 03:06:33;;;;;;;;;;;17.60;99.90;;;;;;4974695;28;20008;-78
2022/06/16 03:08:59;;;;;;;;;;;17.50;99.90;;;;;;4974913;28;19910;-79
2022/06/16 03:11:24;;;;;;;;;;;17.60;99.90;;;;;;4974611;28;20362;-78
2022/06/16 03:13:50;;;;;;;;;;;17.60;99.90;;;;;;4974688;28;19918;-79
2022/06/16 03:16:16;;;;;;;;;;;17.60;99.90;;;;;;4974632;28;19917;-78
2022/06/16 03:18:41;;;;;;;;;;;17.50;99.90;;;;;;4974904;28;19962;-78
2022/06/16 03:21:07;;;;;;;;;;;17.40;99.90;;;;;;4974511;28;20389;-78
2022/06/16 03:23:33;;;;;;;;;;;17.30;99.90;;;;;;4974679;28;19914;-78
2022/06/16 03:25:59;;;;;;;;;;;17.00;99.90;;;;;;4974483;28;19914;-79
2022/06/16 03:28:25;;;;;;;;;;;17.10;99.90;;;;;;4974541;28;19917;-78
2022/06/16 03:30:51;;;;;;;;;;;17.20;99.90;;;;;;4974523;28;19917;-78
2022/06/16 03:33:17;;;;;;;;;;;17.20;99.90;;;;;;4976735;28;19910;-79
2022/06/16 03:35:43;;;;;;;;;;;17.10;99.90;;;;;;4978399;28;19910;-78
2022/06/16 03:38:13;;;;;;;;;;;17.00;99.90;;;;;;4978327;28;20349;-77
2022/06/16 03:40:39;;;;;;;;;;;17.00;99.90;;;;;;4978092;28;20010;-79
2022/06/16 03:43:06;;;;;;;;;;;17.10;99.90;;;;;;4977997;28;19946;-78
2022/06/16 03:45:32;;;;;;;;;;;17.30;99.90;;;;;;4977940;28;20378;-77
2022/06/16 03:47:58;;;;;;;;;;;17.30;99.90;;;;;;4960267;28;19921;-78
2022/06/16 03:50:24;;;;;;;;;;;17.20;99.90;;;;;;4978025;28;19914;-78
2022/06/16 03:52:49;;;;;;;;;;;17.10;99.90;;;;;;4977775;28;20329;-78
2022/06/16 03:55:15;;;;;;;;;;;17.00;99.90;;;;;;4977779;28;20286;-78
2022/06/16 03:57:41;;;;;;;;;;;16.90;99.90;;;;;;4978044;28;20288;-78
2022/06/16 04:00:08;;;;;;;;;;;16.80;99.90;;;;;;4977685;28;19980;-79
2022/06/16 04:02:33;;;;;;;;;;;16.80;99.90;;;;;;4977633;28;19910;-77
2022/06/16 04:05:00;;;;;;;;;;;16.80;99.90;;;;;;4977653;28;19925;-79
2022/06/16 04:07:27;;;;;;;;;;;16.80;99.90;;;;;;4977543;28;19910;-79
2022/06/16 04:09:52;;;;;;;;;;;16.80;99.90;;;;;;4977634;28;20413;-78
2022/06/16 04:12:18;;;;;;;;;;;16.70;99.90;;;;;;4977516;28;19953;-78
2022/06/16 04:14:43;;;;;;;;;;;16.60;99.90;;;;;;4977663;28;20362;-78
2022/06/16 04:17:09;;;;;;;;;;;16.80;99.90;;;;;;4977358;28;19952;-78
2022/06/16 04:19:35;;;;;;;;;;;16.90;99.90;;;;;;4977363;28;19910;-78
2022/06/16 04:22:00;;;;;;;;;;;17.00;99.90;;;;;;4977467;28;19917;-79
2022/06/16 04:24:26;;;;;;;;;;;17.00;99.90;;;;;;4977219;28;19917;-78
2022/06/16 04:26:51;;;;;;;;;;;17.10;99.90;;;;;;4977569;28;19989;-78
2022/06/16 04:29:18;;;;;;;;;;;17.00;99.90;;;;;;4977173;28;19910;-78
2022/06/16 04:31:44;;;;;;;;;;;16.80;99.90;;;;;;4977166;28;19957;-77
2022/06/16 04:34:09;;;;;;;;;;;17.00;99.90;;;;;;4977070;28;19911;-79
2022/06/16 04:36:35;;;;;;;;;;;17.00;99.90;;;;;;4977047;28;19914;-78
2022/06/16 04:39:01;;;;;;;;;;;17.00;99.90;;;;;;4977363;28;19949;-79
2022/06/16 04:41:27;;;;;;;;;;;17.10;99.90;;;;;;4977134;28;19910;-77
2022/06/16 04:43:52;;;;;;;;;;;17.10;99.90;;;;;;4976531;28;20437;-78
2022/06/16 04:46:19;;;;;;;;;;;17.10;99.90;;;;;;4977019;28;19997;-79
2022/06/16 04:48:44;;;;;;;;;;;17.10;99.90;;;;;;4976749;28;19925;-79
2022/06/16 04:51:11;;;;;;;;;;;17.10;99.90;;;;;;4976801;28;19914;-79
2022/06/16 04:53:36;;;;;;;;;;;17.20;99.90;;;;;;4976929;28;19941;-78
2022/06/16 04:56:03;;;;;;;;;;;17.20;99.90;;;;;;4959367;28;20004;-81
2022/06/16 04:58:29;;;;;;;;;;;17.10;99.90;;;;;;4976734;28;19917;-79
2022/06/16 05:00:56;;;;;;;;;;;17.20;99.90;;;;;;4976621;28;19910;-80
2022/06/16 05:03:22;;;;;;;;;;;17.40;99.90;;;;;;4976760;28;20370;-78
2022/06/16 05:05:48;;;;;;;;;;;17.50;99.90;;;;;;4976485;28;20286;-79
2022/06/16 05:08:15;;;;;;;;;;;17.70;99.90;;;;;;4976462;28;20287;-78
2022/06/16 05:10:41;;;;;;;;;;;17.80;99.90;;;;;;4976422;28;19914;-78
2022/06/16 05:13:07;;;;;;;;;;;17.90;99.90;;;;;;4976404;28;19910;-78
2022/06/16 05:15:32;;;;;;;;;;;18.10;99.90;;;;;;4976337;28;19914;-78
2022/06/16 05:17:58;;;;;;;;;;;18.10;99.90;;;;;;4976306;28;20386;-78
2022/06/16 05:20:23;;;;;;;;;;;18.10;99.90;;;;;;4976289;28;19914;-78
2022/06/16 05:22:49;;;;;;;;;;;18.00;99.90;;;;;;4976149;28;19910;-78
2022/06/16 05:25:15;;;;;;;;;;;17.90;99.90;;;;;;4976223;28;20363;-78
2022/06/16 05:27:40;;;;;;;;;;;17.90;99.90;;;;;;4976341;28;20290;-78
2022/06/16 05:30:07;;;;;;;;;;;18.00;99.90;;;;;;4976147;28;19958;-79
2022/06/16 05:32:32;;;;;;;;;;;18.10;99.90;;;;;;4975962;28;19940;-78
2022/06/16 05:34:58;;;;;;;;;;;18.30;99.90;;;;;;4975895;28;19910;-78
2022/06/16 05:37:23;;;;;;;;;;;18.50;99.90;;;;;;4976093;28;19914;-79
2022/06/16 05:39:49;;;;;;;;;;;18.50;99.90;;;;;;4975895;28;19974;-77
2022/06/16 05:42:15;;;;;;;;;;;18.60;99.90;;;;;;4975843;28;19910;-79
2022/06/16 05:44:41;;;;;;;;;;;18.70;99.90;;;;;;4975662;28;19968;-78
2022/06/16 05:47:07;;;;;;;;;;;18.90;99.90;;;;;;4975754;28;19910;-79
2022/06/16 05:49:33;;;;;;;;;;;18.90;99.90;;;;;;4975229;28;20290;-79
2022/06/16 05:52:00;;;;;;;;;;;19.00;99.90;;;;;;4975663;28;19910;-78
2022/06/16 05:54:26;;;;;;;;;;;19.00;99.90;;;;;;4975677;28;20018;-78
2022/06/16 05:56:51;;;;;;;;;;;19.10;99.90;;;;;;4974939;28;20022;-79
2022/06/16 05:59:17;;;;;;;;;;;19.30;99.90;;;;;;4975442;28;19910;-78
2022/06/16 06:01:42;;;;;;;;;;;19.40;99.90;;;;;;4975413;28;19914;-79
2022/06/16 06:04:08;;;;;;;;;;;19.40;99.90;;;;;;4975547;28;20008;-78
2022/06/16 06:06:34;;;;;;;;;;;19.60;99.90;;;;;;4975450;28;19917;-79
2022/06/16 06:17:16;;;;;;;;;;;19.70;99.90;;;;;;4975278;28;19973;-79
2022/06/16 06:19:42;;;;;;;;;;;19.70;99.90;;;;;;4975603;28;19961;-80
2022/06/16 06:22:13;;;;;;;;;;;19.80;99.90;;;;;;4975124;28;20386;-78
2022/06/16 06:24:40;;;;;;;;;;;19.90;99.90;;;;;;4975330;28;19914;-79
2022/06/16 06:27:10;;;;;;;;;;;19.90;99.90;;;;;;4975164;28;19916;-79
2022/06/16 06:29:36;;;;;;;;;;;20.10;99.90;;;;;;4975114;28;19910;-79
2022/06/16 06:32:02;;;;;;;;;;;20.20;99.90;;;;;;4975212;28;20416;-79
2022/06/16 06:34:28;;;;;;;;;;;20.10;99.90;;;;;;4975126;28;20394;-78
2022/06/16 06:36:54;;;;;;;;;;;20.00;99.90;;;;;;4975146;28;20397;-78
2022/06/16 06:39:20;;;;;;;;;;;20.10;99.90;;;;;;4974954;28;19910;-79
2022/06/16 06:41:45;;;;;;;;;;;20.20;99.90;;;;;;4974972;28;19911;-79
2022/06/16 06:44:11;;;;;;;;;;;20.30;99.90;;;;;;4974947;28;20264;-78
2022/06/16 06:46:37;;;;;;;;;;;20.30;99.90;;;;;;4974949;28;19910;-80
2022/06/16 06:49:03;;;;;;;;;;;20.40;99.30;;;;;;4974767;28;20001;-79
2022/06/16 06:51:31;;;;;;;;;;;20.60;99.60;;;;;;4974725;28;19910;-79
2022/06/16 06:53:57;;;;;;;;;;;20.90;98.50;;;;;;4975083;28;20374;-78
2022/06/16 06:56:23;;;;;;;;;;;21.00;97.20;;;;;;4974881;28;19941;-78
2022/06/16 06:58:48;;;;;;;;;;;21.10;97.00;;;;;;4974779;28;19910;-78
2022/06/16 07:01:14;;;;;;;;;;;21.40;96.30;;;;;;4974742;28;19910;-78
2022/06/16 07:03:39;;;;;;;;;;;21.50;95.30;;;;;;4974842;28;19918;-80
2022/06/16 07:06:05;;;;;;;;;;;21.50;94.40;;;;;;4974777;28;19961;-80
2022/06/16 07:08:31;;;;;;;;;;;21.80;94.30;;;;;;4978700;28;20374;-79
2022/06/16 07:10:56;;;;;;;;;;;21.90;93.20;;;;;;4978641;28;19913;-79
2022/06/16 07:13:23;;;;;;;;;;;21.80;92.10;;;;;;4978514;28;19965;-78
2022/06/16 07:15:49;;;;;;;;;;;22.20;92.50;;;;;;4978823;28;19910;-79
2022/06/16 07:18:14;;;;;;;;;;;22.50;90.80;;;;;;4978491;28;19949;-78
2022/06/16 07:20:40;;;;;;;;;;;22.70;90.40;;;;;;4978509;28;19910;-78
2022/06/16 07:23:06;;;;;;;;;;;23.00;90.10;;;;;;4978336;28;20406;-79
2022/06/16 07:25:32;;;;;;;;;;;23.30;87.70;;;;;;4978542;28;19921;-79
2022/06/16 07:28:01;;;;;;;;;;;23.30;86.00;;;;;;4978431;28;19910;-78
2022/06/16 07:30:26;;;;;;;;;;;23.70;85.00;;;;;;4978395;28;20284;-79
2022/06/16 07:32:52;;;;;;;;;;;23.80;82.10;;;;;;4978297;28;20017;-80
2022/06/16 07:35:19;;;;;;;;;;;24.10;81.30;;;;;;4978153;28;19911;-79
2022/06/16 07:37:45;;;;;;;;;;;24.30;80.30;;;;;;4978098;28;20371;-80
2022/06/16 07:40:12;;;;;;;;;;;24.50;79.30;;;;;;4978043;28;19917;-79
2022/06/16 07:42:38;;;;;;;;;;;24.70;79.50;;;;;;4977937;28;19911;-79
2022/06/16 07:45:03;;;;;;;;;;;25.10;78.50;;;;;;4978030;28;19914;-81
2022/06/16 07:47:29;;;;;;;;;;;25.40;76.40;;;;;;4977645;28;20400;-78
2022/06/16 07:49:55;;;;;;;;;;;27.70;71.60;;;;;;4978399;28;19918;-80
2022/06/16 07:52:20;;;;;;;;;;;29.60;65.80;;;;;;4961118;28;19912;-81
2022/06/16 07:54:46;;;;;;;;;;;30.70;62.00;;;;;;4960353;28;19966;-80
2022/06/16 07:57:12;;;;;;;;;;;31.00;60.70;;;;;;4977772;28;19916;-80
2022/06/16 07:59:37;;;;;;;;;;;32.10;59.00;;;;;;4977908;28;19910;-79
2022/06/16 08:02:03;;;;;;;;;;;33.00;57.00;;;;;;4977650;28;19917;-80
2022/06/16 08:04:29;;;;;;;;;;;33.30;56.50;;;;;;4977581;28;19922;-79
2022/06/16 08:07:00;;;;;;;;;;;32.80;54.20;;;;;;4977918;28;19910;-81
2022/06/16 08:09:26;;;;;;;;;;;33.10;54.80;;;;;;4977868;28;19910;-80
2022/06/16 08:12:04;;;;;;;;;;;33.70;55.40;;;;;;4977475;28;20004;-80
2022/06/16 08:14:30;;;;;;;;;;;34.20;54.80;;;;;;4977624;28;19997;-80
2022/06/16 08:16:56;;;;;;;;;;;34.60;53.10;;;;;;4977430;28;20375;-81
2022/06/16 08:19:22;;;;;;;;;;;34.30;53.60;;;;;;4976566;28;19914;-81
2022/06/16 08:21:48;;;;;;;;;;;34.40;53.20;;;;;;4977594;28;20322;-79
2022/06/16 08:24:14;;;;;;;;;;;34.20;53.10;;;;;;4977390;28;19914;-81
2022/06/16 08:26:40;;;;;;;;;;;34.80;52.70;;;;;;4977439;28;19910;-81
2022/06/16 08:29:07;;;;;;;;;;;35.10;51.90;;;;;;4977347;28;19910;-80
2022/06/16 08:31:33;;;;;;;;;;;33.60;51.70;;;;;;4977240;28;19914;-81
2022/06/16 08:33:59;;;;;;;;;;;32.70;53.10;;;;;;4977122;28;19917;-82
2022/06/16 08:36:25;;;;;;;;;;;32.60;52.90;;;;;;4977046;28;19910;-82
2022/06/16 08:38:51;;;;;;;;;;;32.80;53.60;;;;;;4977169;28;19917;-79
2022/06/16 08:41:26;;;;;;;;;;;33.20;54.00;;;;;;4977020;28;20286;-80
2022/06/16 08:44:00;;;;;;;;;;;32.80;53.40;;;;;;4976854;28;20095;-81
2022/06/16 08:46:30;;;;;;;;;;;32.60;55.00;;;;;;4977259;28;20009;-80
2022/06/16 08:49:01;;;;;;;;;;;32.40;54.60;;;;;;4976594;28;20387;-79
2022/06/16 08:51:32;;;;;;;;;;;33.40;52.90;;;;;;4977057;28;19910;-80
2022/06/16 08:54:14;;;;;;;;;;;33.40;53.10;;;;;;4976822;28;20425;-80
2022/06/16 08:56:56;;;;;;;;;;;32.80;52.70;;;;;;4976895;28;19910;-79
2022/06/16 08:59:34;;;;;;;;;;;31.90;53.10;;;;;;4976629;28;19918;-79
2022/06/16 09:02:26;;;;;;;;;;;31.90;53.80;;;;;;4976524;28;19910;-80
2022/06/16 09:04:55;;;;;;;;;;;32.30;53.70;;;;;;4974300;28;19972;-79
2022/06/16 09:07:27;;;;;;;;;;;32.20;53.30;;;;;;4976810;28;19910;-81
2022/06/16 09:10:14;;;;;;;;;;;31.70;53.30;;;;;;4976504;28;19914;-80
2022/06/16 09:12:48;;;;;;;;;;;30.30;54.60;;;;;;4976889;28;19917;-80
2022/06/16 09:15:24;;;;;;;;;;;29.70;56.00;;;;;;4976509;28;19910;-81
2022/06/16 09:17:52;;;;;;;;;;;30.00;55.80;;;;;;4976602;28;20383;-80
2022/06/16 09:20:25;;;;;;;;;;;30.00;55.90;;;;;;4976277;28;20318;-79
2022/06/16 09:22:58;;;;;;;;;;;30.30;55.70;;;;;;4976228;28;19910;-81
2022/06/16 09:25:24;;;;;;;;;;;30.10;55.70;;;;;;4976336;28;20012;-79
2022/06/16 09:27:59;;;;;;;;;;;29.80;55.60;;;;;;4958796;28;19955;-81
2022/06/16 09:30:28;;;;;;;;;;;29.50;55.40;;;;;;4973655;28;19915;-79
2022/06/16 09:33:12;;;;;;;;;;;29.70;55.30;;;;;;4975984;28;20343;-80
2022/06/16 09:35:41;;;;;;;;;;;30.30;55.30;;;;;;4975934;28;19910;-81
2022/06/16 09:38:13;;;;;;;;;;;31.40;53.80;;;;;;4975949;28;20001;-81
2022/06/16 09:41:00;;;;;;;;;;;31.80;52.80;;;;;;4975946;28;20371;-81
2022/06/16 09:43:29;;;;;;;;;;;31.70;52.70;;;;;;4975768;28;20358;-81
2022/06/16 09:46:00;;;;;;;;;;;31.40;51.60;;;;;;4975883;28;20278;-80
2022/06/16 09:48:44;;;;;;;;;;;31.40;50.70;;;;;;4975586;28;19918;-80
2022/06/16 09:51:19;;;;;;;;;;;31.50;50.80;;;;;;4975822;28;19914;-80
2022/06/16 09:54:07;;;;;;;;;;;31.40;50.90;;;;;;4975681;28;19910;-81
2022/06/16 09:56:45;;;;;;;;;;;32.00;50.70;;;;;;4970150;28;19914;-81
2022/06/16 09:59:13;;;;;;;;;;;31.80;49.70;;;;;;4975488;28;19910;-80
2022/06/16 10:01:46;;;;;;;;;;;31.80;51.00;;;;;;4975685;28;19917;-79
2022/06/16 10:04:12;;;;;;;;;;;31.80;51.10;;;;;;4975394;28;19919;-79
2022/06/16 10:06:56;;;;;;;;;;;32.20;50.60;;;;;;4975442;28;19917;-81
2022/06/16 10:09:27;;;;;;;;;;;32.10;50.70;;;;;;4975334;28;20394;-80
2022/06/16 10:11:58;;;;;;;;;;;32.30;50.00;;;;;;4975317;28;19953;-80
2022/06/16 10:14:26;;;;;;;;;;;32.70;48.50;;;;;;4975348;28;19914;-78
2022/06/16 10:16:58;;;;;;;;;;;32.40;48.60;;;;;;4975249;28;19914;-80
2022/06/16 10:19:26;;;;;;;;;;;32.60;48.30;;;;;;4975393;28;19914;-81
2022/06/16 10:21:52;;;;;;;;;;;32.50;48.60;;;;;;4975284;28;19956;-80
2022/06/16 10:24:18;;;;;;;;;;;32.90;48.30;;;;;;4975070;28;19922;-79
2022/06/16 10:26:44;;;;;;;;;;;33.30;48.40;;;;;;4975177;28;20379;-79
2022/06/16 10:29:29;;;;;;;;;;;33.40;47.20;;;;;;4975099;28;19910;-80
2022/06/16 10:31:56;;;;;;;;;;;33.50;48.30;;;;;;4975076;28;19917;-81
2022/06/16 10:34:27;;;;;;;;;;;34.10;46.80;;;;;;4975160;28;20405;-81
2022/06/16 10:36:57;;;;;;;;;;;34.30;46.30;;;;;;4975019;28;19917;-79
2022/06/16 10:39:24;;;;;;;;;;;34.60;46.00;;;;;;4958129;28;19921;-80
2022/06/16 10:41:58;;;;;;;;;;;34.20;45.80;;;;;;4974691;28;19917;-79
2022/06/16 10:44:26;;;;;;;;;;;34.40;45.60;;;;;;4974964;28;19922;-79
2022/06/16 10:46:55;;;;;;;;;;;34.20;46.10;;;;;;4974827;28;19910;-80
2022/06/16 10:49:25;;;;;;;;;;;34.90;46.40;;;;;;4974479;28;19987;-80
2022/06/16 10:51:53;;;;;;;;;;;35.50;46.00;;;;;;4974821;28;20334;-80
2022/06/16 10:54:32;;;;;;;;;;;35.60;45.50;;;;;;4974854;28;20289;-79
2022/06/16 10:57:06;;;;;;;;;;;36.10;43.70;;;;;;4975113;28;19917;-81
2022/06/16 10:59:35;;;;;;;;;;;36.50;43.00;;;;;;4974732;28;19910;-79
2022/06/16 11:02:03;;;;;;;;;;;37.00;42.50;;;;;;4974736;28;20435;-79
2022/06/16 11:04:37;;;;;;;;;;;36.30;43.10;;;;;;4974719;28;20357;-81
2022/06/16 11:07:03;;;;;;;;;;;35.00;42.30;;;;;;4974748;28;19921;-81
2022/06/16 11:09:29;;;;;;;;;;;34.20;44.10;;;;;;4974936;28;19910;-79
2022/06/16 11:11:58;;;;;;;;;;;34.50;44.50;;;;;;4974688;28;19910;-80
2022/06/16 11:14:39;;;;;;;;;;;34.80;44.20;;;;;;4974611;28;19914;-81
2022/06/16 11:17:24;;;;;;;;;;;35.00;42.90;;;;;;4974746;28;19910;-79
2022/06/16 11:19:52;;;;;;;;;;;35.60;43.20;;;;;;4974596;28;19910;-80
2022/06/16 11:22:27;;;;;;;;;;;36.70;43.00;;;;;;4974832;28;19910;-80
2022/06/16 11:24:54;;;;;;;;;;;37.10;42.20;;;;;;4974624;28;20386;-81
2022/06/16 11:27:20;;;;;;;;;;;37.50;40.50;;;;;;4974716;28;19910;-81
2022/06/16 11:29:45;;;;;;;;;;;37.10;41.80;;;;;;4974516;28;19910;-81
2022/06/16 11:32:35;;;;;;;;;;;37.60;41.10;;;;;;4974518;28;19911;-79
2022/06/16 11:35:00;;;;;;;;;;;37.60;40.90;;;;;;4974511;28;20259;-81
2022/06/16 11:37:33;;;;;;;;;;;37.90;40.20;;;;;;4974529;28;19938;-80
2022/06/16 11:40:04;;;;;;;;;;;36.90;40.50;;;;;;4974908;28;19910;-80
2022/06/16 11:42:49;;;;;;;;;;;37.20;40.30;;;;;;4974633;28;20017;-80
2022/06/16 11:45:20;;;;;;;;;;;37.00;40.40;;;;;;4974447;28;19914;-81
2022/06/16 11:47:51;;;;;;;;;;;37.00;40.30;;;;;;4974267;28;19914;-81
2022/06/16 11:50:23;;;;;;;;;;;36.10;40.70;;;;;;4974556;28;19981;-79
2022/06/16 11:52:58;;;;;;;;;;;36.40;41.00;;;;;;4974488;28;19965;-79
2022/06/16 11:55:26;;;;;;;;;;;35.60;41.70;;;;;;4977753;28;19934;-79
2022/06/16 11:57:58;;;;;;;;;;;36.00;41.60;;;;;;4978022;28;20100;-79
2022/06/16 12:00:53;;;;;;;;;;;36.70;42.50;;;;;;4977747;28;20001;-81
2022/06/16 12:03:25;;;;;;;;;;;37.90;41.60;;;;;;4969241;28;19993;-81
2022/06/16 12:05:56;;;;;;;;;;;37.60;41.10;;;;;;4977904;28;19918;-80
2022/06/16 12:08:40;;;;;;;;;;;37.90;40.70;;;;;;4977643;28;19916;-80
2022/06/16 12:11:26;;;;;;;;;;;38.00;41.40;;;;;;4977637;28;19914;-81
2022/06/16 12:14:00;;;;;;;;;;;37.60;41.00;;;;;;4957336;28;19960;-80
2022/06/16 12:16:32;;;;;;;;;;;37.80;41.80;;;;;;4977702;28;19910;-81
2022/06/16 12:19:02;;;;;;;;;;;37.90;40.90;;;;;;4977515;28;20009;-80
2022/06/16 12:21:32;;;;;;;;;;;38.00;41.20;;;;;;4977804;28;20358;-80
2022/06/16 12:24:04;;;;;;;;;;;37.60;40.70;;;;;;4977435;28;20345;-80
2022/06/16 12:26:36;;;;;;;;;;;37.60;41.00;;;;;;4977389;28;20333;-78
2022/06/16 12:29:07;;;;;;;;;;;38.10;41.40;;;;;;4977226;28;19960;-81
2022/06/16 12:31:43;;;;;;;;;;;38.50;41.10;;;;;;4977655;28;19949;-80
2022/06/16 12:34:11;;;;;;;;;;;38.10;40.20;;;;;;4977456;28;19926;-80
2022/06/16 12:36:40;;;;;;;;;;;37.50;40.30;;;;;;4977137;28;19911;-81
2022/06/16 12:39:08;;;;;;;;;;;37.60;40.40;;;;;;4959657;28;20381;-79
2022/06/16 12:41:42;;;;;;;;;;;36.90;39.30;;;;;;4977178;28;19918;-81
2022/06/16 12:44:14;;;;;;;;;;;36.30;39.30;;;;;;4977104;28;19914;-79
2022/06/16 12:46:42;;;;;;;;;;;37.20;39.30;;;;;;4976988;28;19957;-80
2022/06/16 12:49:16;;;;;;;;;;;38.60;38.60;;;;;;4976491;28;20394;-81
2022/06/16 12:51:45;;;;;;;;;;;36.90;38.40;;;;;;4976892;28;19910;-79
2022/06/16 12:54:31;;;;;;;;;;;36.70;39.90;;;;;;4976807;28;19910;-79
2022/06/16 12:57:00;;;;;;;;;;;36.10;39.70;;;;;;4976290;28;20004;-79
2022/06/16 12:59:33;;;;;;;;;;;36.90;40.90;;;;;;4976806;28;20271;-80
2022/06/16 13:02:00;;;;;;;;;;;37.10;40.60;;;;;;4976984;28;20382;-80
2022/06/16 13:04:29;;;;;;;;;;;38.20;39.90;;;;;;4976272;28;19922;-81
2022/06/16 13:06:56;;;;;;;;;;;39.10;38.50;;;;;;4976744;28;19910;-80
2022/06/16 13:09:23;;;;;;;;;;;38.30;37.80;;;;;;4976466;28;19916;-80
2022/06/16 13:12:17;;;;;;;;;;;37.20;37.90;;;;;;4976495;28;19953;-80
2022/06/16 13:14:52;;;;;;;;;;;37.80;39.20;;;;;;4974968;28;19914;-80
2022/06/16 13:17:22;;;;;;;;;;;37.40;37.80;;;;;;4976520;28;19917;-80
2022/06/16 13:19:51;;;;;;;;;;;37.90;36.80;;;;;;4976313;28;20286;-81
2022/06/16 13:22:24;;;;;;;;;;;37.70;35.70;;;;;;4976285;28;19917;-79
2022/06/16 13:24:50;;;;;;;;;;;37.30;34.40;;;;;;4976350;28;19914;-79
2022/06/16 13:27:26;;;;;;;;;;;37.60;36.00;;;;;;4976185;28;19910;-80
2022/06/16 13:29:52;;;;;;;;;;;38.60;35.60;;;;;;4976220;28;19957;-81
2022/06/16 13:32:20;;;;;;;;;;;38.40;34.30;;;;;;4976093;28;19918;-80
2022/06/16 13:34:53;;;;;;;;;;;38.00;34.70;;;;;;4976385;28;19910;-79
2022/06/16 13:37:27;;;;;;;;;;;37.60;34.90;;;;;;4975998;28;19917;-79
2022/06/16 13:39:52;;;;;;;;;;;38.50;34.20;;;;;;4975923;28;20378;-81
2022/06/16 13:42:20;;;;;;;;;;;39.00;35.10;;;;;;4976053;28;19961;-79
2022/06/16 13:45:19;;;;;;;;;;;39.70;34.20;;;;;;4975802;28;20267;-81
2022/06/16 13:47:46;;;;;;;;;;;39.90;35.00;;;;;;4975359;28;19914;-80
2022/06/16 13:50:19;;;;;;;;;;;40.00;34.70;;;;;;4975720;28;19915;-79
2022/06/16 13:52:57;;;;;;;;;;;39.80;34.80;;;;;;4976052;28;19976;-80
2022/06/16 13:55:28;;;;;;;;;;;40.20;34.20;;;;;;4975751;28;20384;-79
2022/06/16 13:58:07;;;;;;;;;;;40.10;35.00;;;;;;4975882;28;19950;-79
2022/06/16 14:00:35;;;;;;;;;;;39.50;34.80;;;;;;4975701;28;19914;-81
2022/06/16 14:03:02;;;;;;;;;;;40.70;34.60;;;;;;4975520;28;20005;-80
2022/06/16 14:05:30;;;;;;;;;;;41.00;34.10;;;;;;4975417;28;19965;-80
2022/06/16 14:07:58;;;;;;;;;;;41.40;35.40;;;;;;4975433;28;19949;-80
2022/06/16 14:10:28;;;;;;;;;;;40.30;34.10;;;;;;4975394;28;19910;-80
2022/06/16 14:12:53;;;;;;;;;;;41.50;34.40;;;;;;4975302;28;19911;-81
2022/06/16 14:15:39;;;;;;;;;;;42.30;35.10;;;;;;4975319;28;19917;-81
2022/06/16 14:18:17;;;;;;;;;;;41.10;34.70;;;;;;4975232;28;19945;-81
2022/06/16 14:20:44;;;;;;;;;;;41.70;34.60;;;;;;4975452;28;19937;-81
2022/06/16 14:23:13;;;;;;;;;;;42.00;34.60;;;;;;4975199;28;20101;-81
2022/06/16 14:25:45;;;;;;;;;;;42.00;34.70;;;;;;4975093;28;19965;-80
2022/06/16 14:28:13;;;;;;;;;;;42.10;34.80;;;;;;4975590;28;20401;-81
2022/06/16 14:30:46;;;;;;;;;;;41.50;34.90;;;;;;4975400;28;20323;-81
2022/06/16 14:33:26;;;;;;;;;;;42.00;34.50;;;;;;4975166;28;19910;-81
2022/06/16 14:35:54;;;;;;;;;;;42.30;34.50;;;;;;4975110;28;19957;-82
2022/06/16 14:38:36;;;;;;;;;;;43.30;35.00;;;;;;4975135;28;19937;-81
2022/06/16 14:41:12;;;;;;;;;;;44.10;34.40;;;;;;4975214;28;19910;-81
2022/06/16 14:43:40;;;;;;;;;;;44.80;34.20;;;;;;4974918;28;19910;-82